Time;durP1;ratioP1;P1;durP2;ratioP2;P2;SDS_P1;SDS_P2;PMS_P1;PMS_P2;Temp;Humidity;BMP_temperature;BMP_pressure;BME280_temperature;BME280_humidity;BME280_pressure;Samples;Min_cycle;Max_cycle;Signal;HPM_P1;HPM_P2
2023/12/18 00:00:53;;;;;;;10.30;5.53;;;;;;;;;;6186512;23;20119;-83
2023/12/18 00:03:44;;;;;;;9.00;5.82;;;;;;;;;;6185505;23;20380;-83
2023/12/18 00:06:29;;;;;;;9.80;5.78;;;;;;;;;;6184216;23;20005;-83
2023/12/18 00:11:53;;;;;;;11.52;7.28;;;;;;;;;;6206318;23;20115;-83
2023/12/18 00:14:38;;;;;;;11.02;6.35;;;;;;;;;;6184389;23;20023;-81
2023/12/18 00:17:26;;;;;;;10.20;6.15;;;;;;;;;;6185821;23;20005;-82
2023/12/18 00:20:11;;;;;;;10.70;6.38;;;;;;;;;;6185746;23;20005;-82
2023/12/18 00:22:58;;;;;;;11.55;6.43;;;;;;;;;;6185506;23;19996;-82
2023/12/18 00:25:43;;;;;;;11.55;5.55;;;;;;;;;;6184918;23;20053;-82
2023/12/18 00:28:28;;;;;;;11.60;5.88;;;;;;;;;;6185659;23;20507;-83
2023/12/18 00:31:13;;;;;;;10.02;5.57;;;;;;;;;;6185733;23;19997;-81
2023/12/18 00:33:58;;;;;;;12.75;6.50;;;;;;;;;;6186169;23;20194;-82
2023/12/18 00:36:44;;;;;;;11.27;6.38;;;;;;;;;;6185857;23;20430;-82
2023/12/18 00:39:29;;;;;;;10.77;5.53;;;;;;;;;;6185333;23;20013;-82
2023/12/18 00:42:14;;;;;;;12.73;6.70;;;;;;;;;;6186078;23;19996;-82
2023/12/18 00:44:59;;;;;;;12.05;5.85;;;;;;;;;;6185849;23;20503;-81
2023/12/18 00:47:45;;;;;;;12.02;5.53;;;;;;;;;;6185741;23;20377;-81
2023/12/18 00:50:30;;;;;;;15.75;6.72;;;;;;;;;;6183897;23;20004;-81
2023/12/18 00:53:16;;;;;;;10.52;6.53;;;;;;;;;;6185478;23;20089;-81
2023/12/18 00:56:01;;;;;;;12.15;7.43;;;;;;;;;;6185289;23;20012;-81
2023/12/18 00:58:47;;;;;;;11.02;6.07;;;;;;;;;;6185297;23;20307;-80
2023/12/18 01:01:35;;;;;;;11.88;6.53;;;;;;;;;;6184770;23;20051;-81
2023/12/18 01:04:20;;;;;;;10.48;6.28;;;;;;;;;;6184527;23;19993;-81
2023/12/18 01:07:05;;;;;;;11.18;6.22;;;;;;;;;;6184394;23;20032;-81
2023/12/18 01:09:50;;;;;;;11.57;5.72;;;;;;;;;;6187619;23;20084;-83
2023/12/18 01:12:36;;;;;;;11.35;5.72;;;;;;;;;;6215318;23;20004;-83
2023/12/18 01:15:21;;;;;;;11.32;6.13;;;;;;;;;;6214827;23;20008;-83
2023/12/18 01:18:07;;;;;;;11.65;5.90;;;;;;;;;;6214557;23;20007;-83
2023/12/18 01:21:10;;;;;;;10.45;5.63;;;;;;;;;;6215171;23;20348;-82
2023/12/18 01:23:55;;;;;;;11.52;6.35;;;;;;;;;;6215471;23;20053;-79
2023/12/18 01:26:41;;;;;;;9.32;5.43;;;;;;;;;;6214331;23;20456;-83
2023/12/18 01:29:26;;;;;;;10.27;5.80;;;;;;;;;;6194278;23;20000;-83
2023/12/18 01:32:11;;;;;;;13.10;6.32;;;;;;;;;;6236310;23;20004;-83
2023/12/18 01:34:57;;;;;;;12.15;6.75;;;;;;;;;;6213908;23;20000;-84
2023/12/18 01:37:42;;;;;;;9.45;5.70;;;;;;;;;;6214909;23;20464;-82
2023/12/18 01:40:27;;;;;;;11.13;5.75;;;;;;;;;;6194497;23;20087;-82
2023/12/18 01:43:23;;;;;;;12.25;6.82;;;;;;;;;;6215210;23;20000;-82
2023/12/18 01:46:08;;;;;;;11.27;6.00;;;;;;;;;;6215488;23;20073;-83
2023/12/18 01:48:54;;;;;;;11.27;5.57;;;;;;;;;;6236044;23;20000;-83
2023/12/18 01:51:39;;;;;;;11.65;5.78;;;;;;;;;;6193383;23;20015;-83
2023/12/18 01:54:25;;;;;;;10.65;5.72;;;;;;;;;;6236089;23;20500;-83
2023/12/18 01:57:11;;;;;;;9.45;5.00;;;;;;;;;;6216429;23;20007;-83
2023/12/18 01:59:57;;;;;;;9.77;6.13;;;;;;;;;;6214271;23;20352;-82
2023/12/18 02:02:42;;;;;;;9.38;5.07;;;;;;;;;;6214357;23;20000;-82
2023/12/18 02:05:27;;;;;;;11.05;5.38;;;;;;;;;;6193671;23;20393;-82
2023/12/18 02:08:13;;;;;;;9.65;5.00;;;;;;;;;;6214774;23;20026;-82
2023/12/18 02:10:59;;;;;;;8.60;4.90;;;;;;;;;;6214670;23;20016;-82
2023/12/18 02:13:44;;;;;;;10.18;5.38;;;;;;;;;;6235063;23;20023;-82
2023/12/18 02:16:30;;;;;;;10.70;5.85;;;;;;;;;;6213111;23;20007;-82
2023/12/18 02:19:25;;;;;;;9.80;5.32;;;;;;;;;;6214578;23;20000;-82
2023/12/18 02:22:10;;;;;;;8.68;5.70;;;;;;;;;;6213471;23;20383;-84
2023/12/18 02:24:55;;;;;;;10.60;6.45;;;;;;;;;;6212529;23;20000;-83
2023/12/18 02:27:43;;;;;;;9.20;5.20;;;;;;;;;;6214513;23;19999;-84
2023/12/18 02:30:28;;;;;;;9.02;5.13;;;;;;;;;;6214909;23;20038;-86
2023/12/18 02:33:17;;;;;;;10.65;5.32;;;;;;;;;;6214014;23;20031;-83
2023/12/18 02:36:02;;;;;;;9.95;4.95;;;;;;;;;;6235327;23;20012;-84
2023/12/18 02:38:47;;;;;;;11.43;5.40;;;;;;;;;;6214502;23;20333;-84
2023/12/18 02:41:33;;;;;;;7.90;4.38;;;;;;;;;;6214544;23;19996;-84
2023/12/18 02:44:18;;;;;;;9.02;4.75;;;;;;;;;;6236034;23;20063;-84
2023/12/18 02:47:03;;;;;;;9.85;5.13;;;;;;;;;;6214933;23;20018;-84
2023/12/18 02:49:49;;;;;;;9.80;5.30;;;;;;;;;;6215082;23;20000;-84
2023/12/18 02:52:34;;;;;;;8.68;4.97;;;;;;;;;;6234855;23;20004;-84
2023/12/18 02:55:19;;;;;;;10.25;5.10;;;;;;;;;;6215057;23;20314;-82
2023/12/18 02:58:08;;;;;;;9.32;5.05;;;;;;;;;;6214561;23;20052;-83
2023/12/18 03:00:53;;;;;;;7.47;4.35;;;;;;;;;;6194776;23;20004;-84
2023/12/18 03:03:38;;;;;;;9.43;5.28;;;;;;;;;;6216583;23;20008;-85
2023/12/18 03:06:24;;;;;;;7.40;4.32;;;;;;;;;;6218671;23;20000;-82
2023/12/18 03:09:09;;;;;;;8.30;4.78;;;;;;;;;;6219277;23;20000;-81
2023/12/18 03:11:54;;;;;;;8.50;4.70;;;;;;;;;;6239462;23;20027;-82
2023/12/18 03:14:39;;;;;;;8.63;4.80;;;;;;;;;;6217453;23;20012;-82
2023/12/18 03:17:25;;;;;;;8.57;4.78;;;;;;;;;;6198022;23;19996;-82
2023/12/18 03:20:10;;;;;;;9.65;5.32;;;;;;;;;;6218812;23;20023;-83
2023/12/18 03:22:58;;;;;;;8.98;4.85;;;;;;;;;;6240404;23;20003;-83
2023/12/18 03:25:46;;;;;;;11.40;5.45;;;;;;;;;;6218422;23;20428;-83
2023/12/18 03:28:31;;;;;;;11.25;6.03;;;;;;;;;;6238793;23;19996;-82
2023/12/18 03:31:16;;;;;;;9.15;5.18;;;;;;;;;;6240133;23;20000;-83
2023/12/18 03:34:04;;;;;;;9.05;4.40;;;;;;;;;;6218319;23;20004;-84
2023/12/18 03:36:49;;;;;;;10.00;4.95;;;;;;;;;;6218498;23;20325;-82
2023/12/18 03:39:34;;;;;;;8.95;4.80;;;;;;;;;;6219005;23;20388;-83
2023/12/18 03:42:20;;;;;;;9.05;4.70;;;;;;;;;;6218552;23;20019;-80
2023/12/18 03:45:05;;;;;;;10.70;4.40;;;;;;;;;;6218122;23;19996;-83
2023/12/18 03:47:50;;;;;;;9.35;5.78;;;;;;;;;;6218540;23;20027;-84
2023/12/18 03:50:36;;;;;;;10.32;5.05;;;;;;;;;;6217543;23;20000;-83
2023/12/18 03:53:21;;;;;;;8.05;4.28;;;;;;;;;;6218787;23;20142;-84
2023/12/18 03:56:06;;;;;;;9.07;5.38;;;;;;;;;;6239010;23;20008;-84
2023/12/18 03:58:51;;;;;;;8.88;4.30;;;;;;;;;;6218746;23;20556;-84
2023/12/18 04:01:36;;;;;;;8.90;4.68;;;;;;;;;;6218665;23;20333;-83
2023/12/18 04:04:22;;;;;;;8.23;4.28;;;;;;;;;;6214056;23;20011;-84
2023/12/18 04:07:07;;;;;;;7.57;4.47;;;;;;;;;;6216087;23;20037;-83
2023/12/18 04:09:52;;;;;;;11.73;5.82;;;;;;;;;;6214145;22;20083;-83
2023/12/18 04:12:37;;;;;;;9.55;4.82;;;;;;;;;;6193842;23;20484;-84
2023/12/18 04:15:23;;;;;;;10.02;5.38;;;;;;;;;;6214118;23;20000;-84
2023/12/18 04:18:09;;;;;;;10.00;4.72;;;;;;;;;;6213413;23;20392;-82
2023/12/18 04:20:54;;;;;;;8.60;4.68;;;;;;;;;;6213313;23;20303;-82
2023/12/18 04:23:39;;;;;;;7.57;4.35;;;;;;;;;;6215237;23;20316;-83
2023/12/18 04:26:24;;;;;;;6.65;4.15;;;;;;;;;;6214525;23;20396;-82
2023/12/18 04:29:10;;;;;;;8.32;4.38;;;;;;;;;;6216555;23;19996;-83
2023/12/18 04:31:55;;;;;;;8.55;4.07;;;;;;;;;;6216329;23;20003;-84
2023/12/18 04:34:41;;;;;;;8.70;4.40;;;;;;;;;;6197306;23;20437;-83
2023/12/18 04:37:26;;;;;;;7.60;4.00;;;;;;;;;;6216288;23;20003;-83
2023/12/18 04:40:12;;;;;;;8.07;4.22;;;;;;;;;;6195886;23;20011;-83
2023/12/18 04:42:57;;;;;;;8.07;4.40;;;;;;;;;;6216116;23;20030;-82
2023/12/18 04:45:42;;;;;;;9.57;4.65;;;;;;;;;;6194360;23;20079;-82
2023/12/18 04:48:28;;;;;;;12.68;5.85;;;;;;;;;;6217075;23;20074;-82
2023/12/18 04:51:13;;;;;;;8.18;4.63;;;;;;;;;;6215918;23;20433;-82
2023/12/18 04:53:59;;;;;;;7.15;4.70;;;;;;;;;;6216278;23;20010;-82
2023/12/18 04:56:45;;;;;;;10.98;4.70;;;;;;;;;;6215761;23;20007;-83
2023/12/18 04:59:30;;;;;;;8.82;4.63;;;;;;;;;;6216963;23;20483;-84
2023/12/18 05:02:15;;;;;;;8.57;4.47;;;;;;;;;;6215610;23;20030;-85
2023/12/18 05:05:00;;;;;;;8.02;4.70;;;;;;;;;;6216423;23;20046;-85
2023/12/18 05:07:46;;;;;;;7.72;3.80;;;;;;;;;;6217030;23;20003;-81
2023/12/18 05:10:31;;;;;;;7.03;4.68;;;;;;;;;;6216679;23;20094;-84
2023/12/18 05:13:16;;;;;;;6.35;4.15;;;;;;;;;;6216404;23;19996;-84
2023/12/18 05:16:01;;;;;;;6.38;3.58;;;;;;;;;;6216298;23;20004;-85
2023/12/18 05:18:47;;;;;;;6.75;3.88;;;;;;;;;;6216592;23;20004;-86
2023/12/18 05:21:32;;;;;;;7.82;3.78;;;;;;;;;;6215581;23;20007;-83
2023/12/18 05:24:17;;;;;;;6.05;3.90;;;;;;;;;;6217635;23;20031;-83
2023/12/18 05:27:03;;;;;;;5.88;3.63;;;;;;;;;;6215489;23;20000;-84
2023/12/18 05:29:48;;;;;;;8.13;3.95;;;;;;;;;;6216616;23;20471;-83
2023/12/18 05:32:33;;;;;;;7.38;3.47;;;;;;;;;;6217476;23;20491;-83
2023/12/18 05:35:18;;;;;;;5.85;3.72;;;;;;;;;;6217823;23;20437;-84
2023/12/18 05:38:04;;;;;;;7.45;3.90;;;;;;;;;;6217226;23;20336;-83
2023/12/18 05:40:49;;;;;;;6.13;3.35;;;;;;;;;;6217665;23;20310;-83
2023/12/18 05:43:34;;;;;;;7.07;4.45;;;;;;;;;;6218434;23;20004;-83
2023/12/18 05:46:20;;;;;;;14.25;4.18;;;;;;;;;;6216546;23;20441;-83
2023/12/18 05:49:06;;;;;;;8.18;3.90;;;;;;;;;;6218380;23;20336;-83
2023/12/18 05:51:51;;;;;;;7.88;4.40;;;;;;;;;;6217662;23;20007;-82
2023/12/18 05:54:37;;;;;;;5.22;3.20;;;;;;;;;;6217937;23;20000;-85
2023/12/18 05:57:22;;;;;;;8.90;4.82;;;;;;;;;;6195428;23;19996;-82
2023/12/18 06:00:09;;;;;;;9.20;4.45;;;;;;;;;;6217791;23;20047;-78
2023/12/18 06:02:54;;;;;;;6.93;4.05;;;;;;;;;;6215696;23;20053;-84
2023/12/18 06:05:39;;;;;;;7.13;3.90;;;;;;;;;;6217763;23;19996;-84
2023/12/18 06:08:24;;;;;;;9.93;4.15;;;;;;;;;;6218069;23;20002;-83
2023/12/18 06:11:09;;;;;;;9.13;4.75;;;;;;;;;;6217960;23;20068;-83
2023/12/18 06:13:55;;;;;;;10.90;4.65;;;;;;;;;;6216806;23;20038;-83
2023/12/18 06:16:40;;;;;;;7.35;3.53;;;;;;;;;;6236444;23;19996;-82
2023/12/18 06:19:26;;;;;;;10.48;4.40;;;;;;;;;;6238511;23;20075;-81
2023/12/18 06:22:11;;;;;;;8.43;4.18;;;;;;;;;;6217419;23;20527;-82
2023/12/18 06:24:57;;;;;;;7.82;3.72;;;;;;;;;;6217795;23;20000;-81
2023/12/18 06:27:44;;;;;;;7.63;4.60;;;;;;;;;;6216461;23;20054;-81
2023/12/18 06:30:29;;;;;;;6.78;4.28;;;;;;;;;;6216780;23;20000;-81
2023/12/18 06:33:15;;;;;;;9.55;5.05;;;;;;;;;;6216003;23;20004;-81
2023/12/18 06:36:00;;;;;;;7.95;4.70;;;;;;;;;;6215193;23;20000;-80
2023/12/18 06:38:45;;;;;;;8.18;4.50;;;;;;;;;;6215465;23;20000;-87
2023/12/18 06:41:30;;;;;;;8.38;3.67;;;;;;;;;;6216121;23;19996;-77
2023/12/18 06:44:15;;;;;;;7.47;3.95;;;;;;;;;;6214443;23;20428;-81
2023/12/18 06:47:01;;;;;;;10.13;4.35;;;;;;;;;;6211216;23;20057;-77
2023/12/18 06:49:46;;;;;;;10.18;4.78;;;;;;;;;;6213283;23;20088;-79
2023/12/18 06:52:32;;;;;;;10.30;4.35;;;;;;;;;;6234830;23;20020;-77
2023/12/18 06:55:17;;;;;;;9.20;4.20;;;;;;;;;;6235918;23;20000;-77
2023/12/18 06:58:02;;;;;;;7.35;3.97;;;;;;;;;;6214570;23;20000;-76
2023/12/18 07:00:47;;;;;;;8.10;4.53;;;;;;;;;;6214215;23;19996;-77
2023/12/18 07:03:33;;;;;;;9.05;5.25;;;;;;;;;;6214753;23;20007;-77
2023/12/18 07:06:18;;;;;;;13.05;4.47;;;;;;;;;;6214072;23;20024;-77
2023/12/18 07:09:04;;;;;;;9.85;4.60;;;;;;;;;;6213837;23;20436;-76
2023/12/18 07:11:49;;;;;;;10.48;4.55;;;;;;;;;;6215361;23;20392;-76
2023/12/18 07:14:34;;;;;;;7.43;4.22;;;;;;;;;;6232394;23;20367;-77
2023/12/18 07:17:20;;;;;;;8.90;5.45;;;;;;;;;;6212875;23;20445;-76
2023/12/18 07:20:06;;;;;;;9.23;4.38;;;;;;;;;;6217527;23;20007;-76
2023/12/18 07:22:53;;;;;;;9.70;4.35;;;;;;;;;;6239320;23;20031;-77
2023/12/18 07:25:38;;;;;;;12.90;4.90;;;;;;;;;;6213850;23;20000;-77
2023/12/18 07:28:23;;;;;;;9.52;4.15;;;;;;;;;;6211765;23;20473;-77
2023/12/18 07:31:08;;;;;;;10.25;4.93;;;;;;;;;;6221948;22;19984;-83
2023/12/18 07:33:54;;;;;;;8.48;4.38;;;;;;;;;;6234440;23;20121;-84
2023/12/18 07:36:40;;;;;;;8.52;3.65;;;;;;;;;;6216256;23;20000;-84
2023/12/18 07:39:26;;;;;;;10.90;3.83;;;;;;;;;;6214410;23;20004;-84
2023/12/18 07:42:11;;;;;;;9.40;4.55;;;;;;;;;;6214466;23;20400;-84
2023/12/18 07:44:56;;;;;;;10.05;4.25;;;;;;;;;;6235928;23;20373;-84
2023/12/18 07:47:42;;;;;;;8.07;4.32;;;;;;;;;;6218509;23;20433;-83
2023/12/18 07:50:27;;;;;;;10.57;4.45;;;;;;;;;;6215332;23;20373;-82
2023/12/18 07:53:12;;;;;;;9.18;5.32;;;;;;;;;;6235324;23;20425;-82
2023/12/18 07:55:57;;;;;;;11.57;5.32;;;;;;;;;;6213906;23;20070;-79
2023/12/18 07:58:43;;;;;;;6.60;4.22;;;;;;;;;;6210009;23;20062;-83
2023/12/18 08:01:28;;;;;;;7.88;3.75;;;;;;;;;;6215574;23;20027;-78
2023/12/18 08:04:13;;;;;;;11.38;4.55;;;;;;;;;;6211767;23;20007;-77
2023/12/18 08:06:58;;;;;;;8.50;4.25;;;;;;;;;;6213547;23;20135;-78
2023/12/18 08:09:44;;;;;;;7.75;3.97;;;;;;;;;;6209928;22;20436;-79
2023/12/18 08:12:29;;;;;;;7.22;4.13;;;;;;;;;;6213591;23;20095;-79
2023/12/18 08:15:15;;;;;;;9.48;4.40;;;;;;;;;;6228982;23;20000;-79
2023/12/18 08:18:00;;;;;;;8.10;4.50;;;;;;;;;;6234559;23;20004;-78
2023/12/18 08:20:45;;;;;;;8.95;4.47;;;;;;;;;;6213946;23;20318;-79
2023/12/18 08:23:30;;;;;;;11.07;4.35;;;;;;;;;;6213797;23;20105;-78
2023/12/18 08:26:17;;;;;;;11.85;4.65;;;;;;;;;;6214428;23;20004;-77
2023/12/18 08:29:04;;;;;;;11.45;5.15;;;;;;;;;;6235144;23;20004;-77
2023/12/18 08:31:49;;;;;;;9.60;4.97;;;;;;;;;;6214177;23;20022;-77
2023/12/18 08:34:34;;;;;;;11.63;5.35;;;;;;;;;;6234659;23;20344;-74
2023/12/18 08:37:20;;;;;;;9.88;4.90;;;;;;;;;;6215167;23;20080;-75
2023/12/18 08:40:05;;;;;;;10.32;4.88;;;;;;;;;;6214386;23;20008;-76
2023/12/18 08:42:51;;;;;;;11.02;5.63;;;;;;;;;;6214367;23;20401;-75
2023/12/18 08:45:36;;;;;;;13.90;6.30;;;;;;;;;;6213993;23;20000;-77
2023/12/18 08:48:22;;;;;;;12.10;4.93;;;;;;;;;;6214748;23;20008;-76
2023/12/18 08:51:07;;;;;;;8.63;4.80;;;;;;;;;;6212689;23;20000;-79
2023/12/18 08:53:54;;;;;;;10.40;5.22;;;;;;;;;;6234825;23;20006;-78
2023/12/18 08:56:39;;;;;;;11.18;4.95;;;;;;;;;;6214052;23;20005;-78
2023/12/18 08:59:25;;;;;;;11.00;5.38;;;;;;;;;;6214503;23;20082;-79
2023/12/18 09:02:10;;;;;;;10.95;6.38;;;;;;;;;;6212932;23;20445;-81
2023/12/18 09:04:55;;;;;;;14.18;6.38;;;;;;;;;;6212271;23;20002;-82
2023/12/18 09:07:41;;;;;;;11.40;5.80;;;;;;;;;;6234769;23;20000;-80
2023/12/18 09:10:26;;;;;;;8.68;5.47;;;;;;;;;;6212772;23;20468;-80
2023/12/18 09:13:11;;;;;;;16.92;6.75;;;;;;;;;;6213461;23;20178;-79
2023/12/18 09:15:56;;;;;;;9.50;5.20;;;;;;;;;;6212199;23;20075;-80
2023/12/18 09:18:42;;;;;;;10.90;6.07;;;;;;;;;;6235498;23;20015;-80
2023/12/18 09:21:27;;;;;;;11.60;5.40;;;;;;;;;;6215110;23;20071;-79
2023/12/18 09:24:12;;;;;;;10.88;6.50;;;;;;;;;;6213900;23;20607;-80
2023/12/18 09:26:57;;;;;;;11.35;6.38;;;;;;;;;;6212814;23;19997;-79
2023/12/18 09:29:43;;;;;;;13.93;7.55;;;;;;;;;;6234975;23;20004;-80
2023/12/18 09:32:28;;;;;;;11.98;6.60;;;;;;;;;;6213585;23;20039;-79
2023/12/18 09:35:13;;;;;;;13.35;6.53;;;;;;;;;;6214083;23;20012;-79
2023/12/18 09:37:58;;;;;;;12.35;7.35;;;;;;;;;;6214102;23;20004;-79
2023/12/18 09:40:46;;;;;;;11.23;6.45;;;;;;;;;;6214204;23;20058;-78
2023/12/18 09:43:32;;;;;;;17.30;6.90;;;;;;;;;;6213996;23;20043;-78
2023/12/18 09:46:17;;;;;;;10.40;6.10;;;;;;;;;;6212048;23;20496;-79
2023/12/18 09:49:02;;;;;;;11.57;6.47;;;;;;;;;;6209604;23;20023;-77
2023/12/18 09:51:50;;;;;;;14.00;7.22;;;;;;;;;;6212466;23;20032;-80
2023/12/18 09:54:37;;;;;;;12.50;6.55;;;;;;;;;;6214146;23;20070;-82
2023/12/18 09:57:23;;;;;;;9.95;6.63;;;;;;;;;;6214995;23;20028;-81
2023/12/18 10:00:12;;;;;;;10.13;6.47;;;;;;;;;;6220299;23;20012;-81
2023/12/18 10:02:58;;;;;;;13.10;6.75;;;;;;;;;;6229169;23;20063;-80
2023/12/18 10:05:43;;;;;;;13.23;7.50;;;;;;;;;;6211842;23;20339;-81
2023/12/18 10:08:29;;;;;;;11.50;7.20;;;;;;;;;;6213810;23;20027;-82
2023/12/18 10:11:25;;;;;;;12.88;7.38;;;;;;;;;;6212057;23;20016;-80
2023/12/18 10:14:14;;;;;;;13.80;7.78;;;;;;;;;;6212150;23;20374;-82
2023/12/18 10:17:00;;;;;;;11.70;7.25;;;;;;;;;;6213125;23;20079;-80
2023/12/18 10:19:45;;;;;;;13.32;7.82;;;;;;;;;;6230983;23;20015;-82
2023/12/18 10:22:31;;;;;;;18.63;10.52;;;;;;;;;;6236986;23;20000;-80
2023/12/18 10:25:16;;;;;;;19.67;9.38;;;;;;;;;;6208310;23;20007;-80
2023/12/18 10:28:01;;;;;;;14.10;8.00;;;;;;;;;;6215390;23;19996;-80
2023/12/18 10:30:47;;;;;;;12.93;7.82;;;;;;;;;;6200382;23;19996;-80
2023/12/18 10:33:32;;;;;;;14.55;8.00;;;;;;;;;;6214055;23;20403;-79
2023/12/18 10:36:18;;;;;;;15.02;8.00;;;;;;;;;;6214659;23;20043;-80
2023/12/18 10:39:09;;;;;;;16.08;7.57;;;;;;;;;;6221568;23;20000;-80
2023/12/18 10:41:58;;;;;;;12.00;7.30;;;;;;;;;;6214118;23;20432;-80
2023/12/18 10:44:44;;;;;;;13.77;7.78;;;;;;;;;;6212482;23;20030;-80
2023/12/18 10:47:30;;;;;;;11.30;7.03;;;;;;;;;;6231928;23;20027;-77
2023/12/18 10:50:16;;;;;;;12.45;7.10;;;;;;;;;;6215598;23;20348;-80
2023/12/18 10:53:03;;;;;;;15.15;8.52;;;;;;;;;;6208329;23;20463;-79
2023/12/18 10:55:49;;;;;;;12.68;6.55;;;;;;;;;;6214169;23;20391;-79
2023/12/18 10:58:34;;;;;;;11.43;6.22;;;;;;;;;;6231469;23;20367;-80
2023/12/18 11:01:19;;;;;;;11.65;6.82;;;;;;;;;;6204588;23;20032;-79
2023/12/18 11:04:05;;;;;;;12.60;6.63;;;;;;;;;;6214412;23;20007;-81
2023/12/18 11:06:50;;;;;;;13.02;6.90;;;;;;;;;;6208382;23;20119;-81
2023/12/18 11:09:36;;;;;;;10.15;5.75;;;;;;;;;;6234633;22;19992;-82
2023/12/18 11:12:23;;;;;;;11.18;7.38;;;;;;;;;;6213541;23;20924;-80
2023/12/18 11:15:14;;;;;;;12.38;7.30;;;;;;;;;;6230394;23;20004;-81
2023/12/18 11:18:14;;;;;;;11.85;5.47;;;;;;;;;;6214379;23;20031;-81
2023/12/18 11:21:00;;;;;;;10.38;5.95;;;;;;;;;;6205535;23;20503;-81
2023/12/18 11:23:48;;;;;;;12.50;7.50;;;;;;;;;;6215568;23;20831;-80
2023/12/18 11:26:34;;;;;;;12.15;7.13;;;;;;;;;;6213831;23;20023;-80
2023/12/18 11:29:39;;;;;;;12.02;6.60;;;;;;;;;;6204729;23;20054;-79
2023/12/18 11:32:43;;;;;;;10.27;6.10;;;;;;;;;;6236532;23;20329;-79
2023/12/18 11:35:32;;;;;;;13.95;6.40;;;;;;;;;;6194284;23;20384;-78
2023/12/18 11:38:18;;;;;;;10.40;5.30;;;;;;;;;;6234620;23;20384;-79
2023/12/18 11:41:03;;;;;;;12.02;6.13;;;;;;;;;;6213779;23;20000;-81
2023/12/18 11:43:49;;;;;;;13.60;6.35;;;;;;;;;;6204364;23;20321;-79
2023/12/18 11:46:34;;;;;;;16.75;7.22;;;;;;;;;;6237022;23;20084;-77
2023/12/18 11:49:20;;;;;;;12.98;7.53;;;;;;;;;;6235564;23;20058;-77
2023/12/18 11:52:25;;;;;;;13.05;7.65;;;;;;;;;;6211802;23;20427;-79
2023/12/18 11:55:10;;;;;;;15.82;8.45;;;;;;;;;;6233950;23;20004;-79
2023/12/18 11:57:56;;;;;;;13.85;8.00;;;;;;;;;;6210671;23;20142;-79
2023/12/18 12:00:41;;;;;;;14.65;8.52;;;;;;;;;;6214269;23;20000;-79
2023/12/18 12:03:27;;;;;;;18.00;9.25;;;;;;;;;;6235894;23;20027;-79
2023/12/18 12:06:13;;;;;;;14.50;7.97;;;;;;;;;;6205259;23;20083;-79
2023/12/18 12:08:58;;;;;;;19.58;9.77;;;;;;;;;;6212815;23;20412;-80
2023/12/18 12:11:44;;;;;;;14.50;9.18;;;;;;;;;;6215367;23;20016;-78
2023/12/18 12:14:29;;;;;;;15.25;9.55;;;;;;;;;;6213271;23;19996;-79
2023/12/18 12:17:18;;;;;;;15.90;9.23;;;;;;;;;;6212821;23;20445;-81
2023/12/18 12:20:07;;;;;;;15.13;9.10;;;;;;;;;;6189746;23;20337;-81
2023/12/18 12:22:52;;;;;;;15.80;8.68;;;;;;;;;;6213535;23;20006;-80
2023/12/18 12:25:38;;;;;;;15.65;9.77;;;;;;;;;;6214068;23;20432;-80
2023/12/18 12:28:23;;;;;;;13.70;8.43;;;;;;;;;;6211544;23;20686;-79
2023/12/18 12:31:09;;;;;;;16.30;9.75;;;;;;;;;;6209123;23;19996;-81
2023/12/18 12:33:54;;;;;;;14.68;9.75;;;;;;;;;;6213073;23;20000;-80
2023/12/18 12:36:39;;;;;;;13.57;9.02;;;;;;;;;;6212411;23;20376;-81
2023/12/18 12:39:26;;;;;;;18.55;10.35;;;;;;;;;;6213809;23;20004;-81
2023/12/18 12:42:11;;;;;;;17.83;11.00;;;;;;;;;;6234885;23;20352;-81
2023/12/18 12:44:56;;;;;;;15.13;9.85;;;;;;;;;;6213447;23;20325;-81
2023/12/18 12:47:41;;;;;;;16.25;10.13;;;;;;;;;;6214040;23;20321;-82
2023/12/18 12:50:27;;;;;;;15.55;10.38;;;;;;;;;;6215367;23;20001;-83
2023/12/18 12:53:13;;;;;;;13.00;8.95;;;;;;;;;;6215668;23;20404;-82
2023/12/18 12:55:58;;;;;;;18.05;10.23;;;;;;;;;;6213900;23;20008;-81
2023/12/18 12:58:44;;;;;;;18.60;10.20;;;;;;;;;;6233894;23;20127;-82
2023/12/18 13:01:29;;;;;;;17.55;9.95;;;;;;;;;;6215353;23;20429;-85
2023/12/18 13:04:14;;;;;;;14.43;9.35;;;;;;;;;;6236555;23;20313;-83
2023/12/18 13:07:00;;;;;;;14.43;8.60;;;;;;;;;;6195677;23;20002;-84
2023/12/18 13:09:45;;;;;;;14.88;8.77;;;;;;;;;;6215849;22;20000;-86
2023/12/18 13:12:30;;;;;;;15.40;10.50;;;;;;;;;;6215661;23;20007;-84
2023/12/18 13:15:16;;;;;;;16.63;9.85;;;;;;;;;;6216069;23;20000;-85
2023/12/18 13:18:01;;;;;;;18.70;9.85;;;;;;;;;;6214732;23;20035;-83
2023/12/18 13:20:46;;;;;;;14.27;8.98;;;;;;;;;;6213967;23;20488;-84
2023/12/18 13:23:31;;;;;;;15.27;9.35;;;;;;;;;;6218201;23;20000;-85
2023/12/18 13:26:17;;;;;;;15.43;10.70;;;;;;;;;;6235903;23;20004;-85
2023/12/18 13:29:02;;;;;;;16.65;10.00;;;;;;;;;;6215356;23;19996;-86
2023/12/18 13:31:47;;;;;;;19.02;9.88;;;;;;;;;;6217590;23;20004;-87
2023/12/18 13:34:33;;;;;;;15.00;10.43;;;;;;;;;;6221589;23;20532;-89
2023/12/18 13:37:18;;;;;;;17.75;9.98;;;;;;;;;;6222254;23;20000;-89
2023/12/18 13:40:04;;;;;;;16.50;10.70;;;;;;;;;;6241883;23;20055;-88
2023/12/18 13:42:50;;;;;;;16.33;10.10;;;;;;;;;;6219291;23;20004;-88
2023/12/18 13:45:35;;;;;;;16.33;11.50;;;;;;;;;;6215444;23;20075;-83
2023/12/18 13:48:21;;;;;;;18.40;10.73;;;;;;;;;;6215775;23;20071;-83
2023/12/18 13:51:06;;;;;;;16.33;10.93;;;;;;;;;;6215707;23;20000;-84
2023/12/18 13:53:51;;;;;;;17.48;10.07;;;;;;;;;;6215860;23;20054;-86
2023/12/18 13:56:36;;;;;;;17.40;10.70;;;;;;;;;;6216878;23;20008;-87
2023/12/18 13:59:22;;;;;;;19.25;10.80;;;;;;;;;;6214848;23;20047;-84
2023/12/18 14:02:07;;;;;;;17.45;9.10;;;;;;;;;;6215995;23;19996;-85
2023/12/18 14:04:52;;;;;;;19.17;10.65;;;;;;;;;;6214312;23;20004;-89
2023/12/18 14:07:37;;;;;;;17.38;10.02;;;;;;;;;;6216824;23;19996;-88
2023/12/18 14:10:23;;;;;;;23.65;10.75;;;;;;;;;;6194270;23;20031;-85
2023/12/18 14:13:08;;;;;;;18.05;11.00;;;;;;;;;;6216714;23;20011;-86
2023/12/18 14:15:54;;;;;;;16.38;10.00;;;;;;;;;;6216566;23;20083;-89
2023/12/18 14:18:40;;;;;;;19.63;10.27;;;;;;;;;;6218490;23;20086;-84
2023/12/18 14:21:26;;;;;;;18.45;11.07;;;;;;;;;;6216851;23;20015;-85
2023/12/18 14:24:11;;;;;;;17.95;11.15;;;;;;;;;;6214436;23;20008;-85
2023/12/18 14:26:57;;;;;;;20.77;11.13;;;;;;;;;;6215184;23;20031;-83
2023/12/18 14:29:42;;;;;;;18.23;10.55;;;;;;;;;;6215909;23;20008;-84
2023/12/18 14:32:27;;;;;;;15.95;9.93;;;;;;;;;;6215161;23;19996;-86
2023/12/18 14:35:12;;;;;;;15.70;10.07;;;;;;;;;;6215063;23;20011;-83
2023/12/18 14:37:57;;;;;;;15.93;9.50;;;;;;;;;;6214903;23;20051;-84
2023/12/18 14:40:44;;;;;;;25.13;10.65;;;;;;;;;;6214923;23;20034;-85
2023/12/18 14:43:31;;;;;;;16.83;9.57;;;;;;;;;;6194773;23;19996;-86
2023/12/18 14:46:16;;;;;;;16.50;10.95;;;;;;;;;;6215415;23;20050;-85
2023/12/18 14:49:02;;;;;;;18.40;9.07;;;;;;;;;;6215858;23;20004;-85
2023/12/18 14:51:47;;;;;;;18.02;9.80;;;;;;;;;;6215688;23;19999;-83
2023/12/18 14:54:33;;;;;;;16.10;9.32;;;;;;;;;;6214939;23;20333;-84
2023/12/18 14:57:18;;;;;;;17.30;9.48;;;;;;;;;;6214264;23;19997;-85
2023/12/18 15:00:05;;;;;;;18.75;10.48;;;;;;;;;;6215829;23;20086;-84
2023/12/18 15:02:50;;;;;;;16.77;9.52;;;;;;;;;;6195382;23;20000;-86
2023/12/18 15:05:35;;;;;;;18.02;10.30;;;;;;;;;;6214779;23;20043;-83
2023/12/18 15:08:24;;;;;;;20.90;10.88;;;;;;;;;;6215407;23;19996;-84
2023/12/18 15:11:09;;;;;;;18.58;10.55;;;;;;;;;;6213696;23;20016;-85
2023/12/18 15:13:55;;;;;;;18.15;10.70;;;;;;;;;;6215327;23;20062;-85
2023/12/18 15:16:40;;;;;;;16.30;9.60;;;;;;;;;;6218811;23;20095;-85
2023/12/18 15:19:25;;;;;;;16.85;9.27;;;;;;;;;;6238756;23;20031;-85
2023/12/18 15:22:09;;;;;;;15.25;9.68;;;;;;;;;;6262310;22;20063;-86
2023/12/18 15:24:56;;;;;;;20.98;11.70;;;;;;;;;;6258196;22;20086;-84
2023/12/18 15:27:42;;;;;;;18.05;10.57;;;;;;;;;;6234902;22;20008;-84
2023/12/18 15:30:27;;;;;;;20.33;10.55;;;;;;;;;;6260460;22;19992;-85
2023/12/18 15:33:12;;;;;;;19.17;12.07;;;;;;;;;;6224155;23;20093;-84
2023/12/18 15:36:00;;;;;;;18.15;10.48;;;;;;;;;;6219080;23;20599;-84
2023/12/18 15:38:45;;;;;;;15.85;9.13;;;;;;;;;;6218701;23;20112;-85
2023/12/18 15:41:30;;;;;;;18.30;10.23;;;;;;;;;;6216541;23;20046;-85
2023/12/18 15:44:16;;;;;;;16.05;9.63;;;;;;;;;;6216551;23;20012;-85
2023/12/18 15:47:01;;;;;;;19.58;9.82;;;;;;;;;;6216735;23;20027;-82
2023/12/18 15:49:46;;;;;;;22.48;9.98;;;;;;;;;;6216340;23;20032;-84
2023/12/18 15:52:31;;;;;;;16.30;10.75;;;;;;;;;;6214405;23;20018;-84
2023/12/18 15:55:17;;;;;;;18.15;9.82;;;;;;;;;;6215370;23;20031;-85
2023/12/18 15:58:02;;;;;;;17.88;11.45;;;;;;;;;;6215257;23;20034;-86
2023/12/18 16:00:47;;;;;;;22.05;11.98;;;;;;;;;;6213867;23;20333;-84
2023/12/18 16:03:34;;;;;;;21.52;11.63;;;;;;;;;;6214958;23;20000;-86
2023/12/18 16:06:19;;;;;;;15.48;9.40;;;;;;;;;;6215954;23;20027;-87
2023/12/18 16:09:05;;;;;;;17.27;9.07;;;;;;;;;;6215315;23;19996;-89
2023/12/18 16:11:52;;;;;;;20.48;10.68;;;;;;;;;;6193218;23;20041;-82
2023/12/18 16:14:37;;;;;;;14.38;9.60;;;;;;;;;;6214062;23;20000;-80
2023/12/18 16:17:23;;;;;;;18.15;10.27;;;;;;;;;;6234508;23;20020;-79
2023/12/18 16:20:08;;;;;;;18.52;10.07;;;;;;;;;;6214236;23;20004;-84
2023/12/18 16:22:55;;;;;;;18.77;9.90;;;;;;;;;;6215512;23;20003;-84
2023/12/18 16:25:41;;;;;;;20.30;10.43;;;;;;;;;;6217272;23;20066;-86